Etusivu
METAR-TAF:

METAR-TAF

Lentoasemat :

Muscatine, Iowa, Yhdysvallat

Leveyspiiri: 41-22N, Pituuspiiri: 091-09W, korkeus merenpinnasta: 167 m

Tämänhetkinen sää

Tämä raportti tehtiin 20 minuuttia sitten, kello 18.55 UTC
Tuuli 3 kn luoteesta
Lämpötila -9°C
Kosteus 44%
Ilmanpaine 1035 hPa
Näkyvyys: 16.1 km
selkeää

METAR: KMUT 121855Z AUTO 32003KT 10SM CLR M09/M19 A3055 RMK AO2

Aika: 13:15 (19:15 UTC)


TAF: puuttuu

Säähavainnot ja -ennusteet yli 4000 lentoasemalta (METAR- ja TAF-raportit).

Käytössä olevat sääasemat on merkitty karttaan keltaisilla ja punaisilla pisteillä.

Aseta hiiri pisteen päälle nähdäksesi sääaseman nimen.

Klikkaa sitten nähdäksesi säähavainnot ja -ennusteet.

Kartan vaihtaminen: klikkaa mustalla rastilla varustettuja vihreitä pisteitä, niin voit zoomata sisään; viivalla varustettua vihreää pistettä, niin voit zoomata ulos tai vihreitä nuolia, niin pääset viereisille kartoille.


METAR-TAF: